sensor_id;sensor_type;location;lat;lon;timestamp;pressure;altitude;pressure_sealevel;temperature
7389;BMP180;3735;50.136;11.062;2022-10-30T00:00:39;98610.00;;;11.70
7389;BMP180;3735;50.136;11.062;2022-10-30T00:03:05;98612.00;;;11.60
7389;BMP180;3735;50.136;11.062;2022-10-30T00:05:31;98614.00;;;11.60
7389;BMP180;3735;50.136;11.062;2022-10-30T00:07:57;98595.00;;;11.60
7389;BMP180;3735;50.136;11.062;2022-10-30T00:10:24;98601.00;;;11.60
7389;BMP180;3735;50.136;11.062;2022-10-30T00:12:50;98593.00;;;11.60
7389;BMP180;3735;50.136;11.062;2022-10-30T00:15:16;98597.00;;;11.60
7389;BMP180;3735;50.136;11.062;2022-10-30T00:17:42;98588.00;;;11.60
7389;BMP180;3735;50.136;11.062;2022-10-30T00:20:08;98578.00;;;11.60
7389;BMP180;3735;50.136;11.062;2022-10-30T00:22:35;98588.00;;;11.60
7389;BMP180;3735;50.136;11.062;2022-10-30T00:25:02;98579.00;;;11.60
7389;BMP180;3735;50.136;11.062;2022-10-30T00:27:28;98584.00;;;11.50
7389;BMP180;3735;50.136;11.062;2022-10-30T00:29:54;98589.00;;;11.50
7389;BMP180;3735;50.136;11.062;2022-10-30T00:32:19;98590.00;;;11.50
7389;BMP180;3735;50.136;11.062;2022-10-30T00:34:45;98603.00;;;11.50
7389;BMP180;3735;50.136;11.062;2022-10-30T00:37:11;98591.00;;;11.50
7389;BMP180;3735;50.136;11.062;2022-10-30T00:39:37;98596.00;;;11.50
7389;BMP180;3735;50.136;11.062;2022-10-30T00:42:02;98594.00;;;11.50
7389;BMP180;3735;50.136;11.062;2022-10-30T00:44:33;98589.00;;;11.50
7389;BMP180;3735;50.136;11.062;2022-10-30T00:47:02;98589.00;;;11.50
7389;BMP180;3735;50.136;11.062;2022-10-30T00:49:34;98588.00;;;11.50
7389;BMP180;3735;50.136;11.062;2022-10-30T00:52:04;98585.00;;;11.50
7389;BMP180;3735;50.136;11.062;2022-10-30T00:54:33;98577.00;;;11.50
7389;BMP180;3735;50.136;11.062;2022-10-30T00:57:02;98580.00;;;11.50
7389;BMP180;3735;50.136;11.062;2022-10-30T00:59:32;98587.00;;;11.50
7389;BMP180;3735;50.136;11.062;2022-10-30T01:02:01;98586.00;;;11.50
7389;BMP180;3735;50.136;11.062;2022-10-30T01:04:30;98582.00;;;11.50
7389;BMP180;3735;50.136;11.062;2022-10-30T01:07:05;98587.00;;;11.50
7389;BMP180;3735;50.136;11.062;2022-10-30T01:09:34;98593.00;;;11.40
7389;BMP180;3735;50.136;11.062;2022-10-30T01:12:00;98585.00;;;11.40
7389;BMP180;3735;50.136;11.062;2022-10-30T01:14:26;98581.00;;;11.40
7389;BMP180;3735;50.136;11.062;2022-10-30T01:17:14;98591.00;;;11.40
7389;BMP180;3735;50.136;11.062;2022-10-30T01:26:01;98582.00;;;11.40
7389;BMP180;3735;50.136;11.062;2022-10-30T01:37:49;98565.00;;;11.50
7389;BMP180;3735;50.136;11.062;2022-10-30T01:40:18;98566.00;;;11.50
7389;BMP180;3735;50.136;11.062;2022-10-30T01:42:51;98582.00;;;11.50
7389;BMP180;3735;50.136;11.062;2022-10-30T01:45:21;98565.00;;;11.60
7389;BMP180;3735;50.136;11.062;2022-10-30T01:54:14;98571.00;;;11.80
7389;BMP180;3735;50.136;11.062;2022-10-30T01:57:21;98568.00;;;11.80
7389;BMP180;3735;50.136;11.062;2022-10-30T02:00:06;98571.00;;;11.70
7389;BMP180;3735;50.136;11.062;2022-10-30T02:02:32;98573.00;;;11.60
7389;BMP180;3735;50.136;11.062;2022-10-30T02:04:59;98576.00;;;11.60
7389;BMP180;3735;50.136;11.062;2022-10-30T02:07:24;98556.00;;;11.50
7389;BMP180;3735;50.136;11.062;2022-10-30T02:09:52;98566.00;;;11.50
7389;BMP180;3735;50.136;11.062;2022-10-30T02:12:20;98554.00;;;11.60
7389;BMP180;3735;50.136;11.062;2022-10-30T02:14:53;98567.00;;;11.60
7389;BMP180;3735;50.136;11.062;2022-10-30T02:17:21;98556.00;;;11.60
7389;BMP180;3735;50.136;11.062;2022-10-30T02:19:47;98555.00;;;11.70
7389;BMP180;3735;50.136;11.062;2022-10-30T02:22:12;98557.00;;;11.80
7389;BMP180;3735;50.136;11.062;2022-10-30T02:24:38;98561.00;;;11.90
7389;BMP180;3735;50.136;11.062;2022-10-30T02:27:04;98557.00;;;12.00
7389;BMP180;3735;50.136;11.062;2022-10-30T02:29:30;98551.00;;;12.00
7389;BMP180;3735;50.136;11.062;2022-10-30T02:31:55;98554.00;;;11.90
7389;BMP180;3735;50.136;11.062;2022-10-30T02:34:21;98562.00;;;12.00
7389;BMP180;3735;50.136;11.062;2022-10-30T02:36:47;98549.00;;;12.00
7389;BMP180;3735;50.136;11.062;2022-10-30T02:39:13;98550.00;;;12.00
7389;BMP180;3735;50.136;11.062;2022-10-30T02:41:39;98550.00;;;12.10
7389;BMP180;3735;50.136;11.062;2022-10-30T02:44:05;98547.00;;;12.10
7389;BMP180;3735;50.136;11.062;2022-10-30T02:46:32;98541.00;;;12.10
7389;BMP180;3735;50.136;11.062;2022-10-30T02:48:57;98540.00;;;12.20
7389;BMP180;3735;50.136;11.062;2022-10-30T02:51:23;98538.00;;;12.10
7389;BMP180;3735;50.136;11.062;2022-10-30T02:53:49;98544.00;;;12.00
7389;BMP180;3735;50.136;11.062;2022-10-30T02:56:15;98548.00;;;12.00
7389;BMP180;3735;50.136;11.062;2022-10-30T02:58:41;98554.00;;;11.90
7389;BMP180;3735;50.136;11.062;2022-10-30T03:01:18;98542.00;;;11.90
7389;BMP180;3735;50.136;11.062;2022-10-30T03:03:45;98538.00;;;11.90
7389;BMP180;3735;50.136;11.062;2022-10-30T03:06:15;98538.00;;;11.90
7389;BMP180;3735;50.136;11.062;2022-10-30T03:08:42;98536.00;;;12.00
7389;BMP180;3735;50.136;11.062;2022-10-30T03:11:17;98529.00;;;12.00
7389;BMP180;3735;50.136;11.062;2022-10-30T03:13:45;98529.00;;;12.10
7389;BMP180;3735;50.136;11.062;2022-10-30T03:16:23;98537.00;;;12.20
7389;BMP180;3735;50.136;11.062;2022-10-30T03:18:51;98536.00;;;12.20
7389;BMP180;3735;50.136;11.062;2022-10-30T03:21:20;98536.00;;;12.20
7389;BMP180;3735;50.136;11.062;2022-10-30T03:23:47;98526.00;;;12.20
7389;BMP180;3735;50.136;11.062;2022-10-30T03:26:15;98535.00;;;12.10
7389;BMP180;3735;50.136;11.062;2022-10-30T03:28:41;98523.00;;;12.10
7389;BMP180;3735;50.136;11.062;2022-10-30T03:31:10;98526.00;;;12.10
7389;BMP180;3735;50.136;11.062;2022-10-30T03:33:37;98528.00;;;12.10
7389;BMP180;3735;50.136;11.062;2022-10-30T03:36:06;98531.00;;;12.20
7389;BMP180;3735;50.136;11.062;2022-10-30T03:38:32;98537.00;;;12.20
7389;BMP180;3735;50.136;11.062;2022-10-30T03:40:58;98537.00;;;12.20
7389;BMP180;3735;50.136;11.062;2022-10-30T03:43:24;98537.00;;;12.10
7389;BMP180;3735;50.136;11.062;2022-10-30T03:45:55;98535.00;;;12.10
7389;BMP180;3735;50.136;11.062;2022-10-30T03:48:24;98543.00;;;12.10
7389;BMP180;3735;50.136;11.062;2022-10-30T03:50:55;98541.00;;;12.00
7389;BMP180;3735;50.136;11.062;2022-10-30T03:53:22;98543.00;;;12.00
7389;BMP180;3735;50.136;11.062;2022-10-30T03:55:55;98540.00;;;11.90
7389;BMP180;3735;50.136;11.062;2022-10-30T03:58:21;98542.00;;;11.90
7389;BMP180;3735;50.136;11.062;2022-10-30T04:00:47;98542.00;;;11.90
7389;BMP180;3735;50.136;11.062;2022-10-30T04:03:12;98540.00;;;11.90
7389;BMP180;3735;50.136;11.062;2022-10-30T04:05:38;98538.00;;;12.00
7389;BMP180;3735;50.136;11.062;2022-10-30T04:08:10;98525.00;;;12.00
7389;BMP180;3735;50.136;11.062;2022-10-30T04:10:36;98531.00;;;11.90
7389;BMP180;3735;50.136;11.062;2022-10-30T04:13:05;98530.00;;;11.90
7389;BMP180;3735;50.136;11.062;2022-10-30T04:15:32;98535.00;;;11.90
7389;BMP180;3735;50.136;11.062;2022-10-30T04:17:58;98524.00;;;11.90
7389;BMP180;3735;50.136;11.062;2022-10-30T04:20:26;98530.00;;;11.90
7389;BMP180;3735;50.136;11.062;2022-10-30T04:23:02;98529.00;;;11.70
7389;BMP180;3735;50.136;11.062;2022-10-30T04:25:29;98534.00;;;11.60
7389;BMP180;3735;50.136;11.062;2022-10-30T04:27:55;98539.00;;;11.50
7389;BMP180;3735;50.136;11.062;2022-10-30T04:30:21;98531.00;;;11.50
7389;BMP180;3735;50.136;11.062;2022-10-30T04:32:52;98538.00;;;11.50
7389;BMP180;3735;50.136;11.062;2022-10-30T04:35:22;98527.00;;;11.50
7389;BMP180;3735;50.136;11.062;2022-10-30T04:38:00;98534.00;;;11.50
7389;BMP180;3735;50.136;11.062;2022-10-30T04:40:33;98535.00;;;11.50
7389;BMP180;3735;50.136;11.062;2022-10-30T04:43:00;98522.00;;;11.50
7389;BMP180;3735;50.136;11.062;2022-10-30T04:45:26;98527.00;;;11.50
7389;BMP180;3735;50.136;11.062;2022-10-30T04:47:52;98527.00;;;11.50
7389;BMP180;3735;50.136;11.062;2022-10-30T04:50:18;98523.00;;;11.50
7389;BMP180;3735;50.136;11.062;2022-10-30T04:52:44;98531.00;;;11.60
7389;BMP180;3735;50.136;11.062;2022-10-30T04:55:10;98545.00;;;11.70
7389;BMP180;3735;50.136;11.062;2022-10-30T04:57:37;98529.00;;;11.80
7389;BMP180;3735;50.136;11.062;2022-10-30T05:00:07;98542.00;;;11.80
7389;BMP180;3735;50.136;11.062;2022-10-30T05:02:34;98540.00;;;11.70
7389;BMP180;3735;50.136;11.062;2022-10-30T05:05:02;98539.00;;;11.70
7389;BMP180;3735;50.136;11.062;2022-10-30T05:07:28;98537.00;;;11.70
7389;BMP180;3735;50.136;11.062;2022-10-30T05:09:54;98541.00;;;11.60
7389;BMP180;3735;50.136;11.062;2022-10-30T05:12:19;98542.00;;;11.60
7389;BMP180;3735;50.136;11.062;2022-10-30T05:14:46;98535.00;;;11.70
7389;BMP180;3735;50.136;11.062;2022-10-30T05:17:12;98543.00;;;11.60
7389;BMP180;3735;50.136;11.062;2022-10-30T05:19:38;98539.00;;;11.70
7389;BMP180;3735;50.136;11.062;2022-10-30T05:22:04;98535.00;;;11.60
7389;BMP180;3735;50.136;11.062;2022-10-30T05:24:29;98545.00;;;11.60
7389;BMP180;3735;50.136;11.062;2022-10-30T05:26:55;98547.00;;;11.60
7389;BMP180;3735;50.136;11.062;2022-10-30T05:29:21;98528.00;;;11.60
7389;BMP180;3735;50.136;11.062;2022-10-30T05:31:46;98555.00;;;11.60
7389;BMP180;3735;50.136;11.062;2022-10-30T05:34:12;98555.00;;;11.60
7389;BMP180;3735;50.136;11.062;2022-10-30T05:36:38;98556.00;;;11.50
7389;BMP180;3735;50.136;11.062;2022-10-30T05:39:04;98553.00;;;11.40
7389;BMP180;3735;50.136;11.062;2022-10-30T05:41:29;98553.00;;;11.40
7389;BMP180;3735;50.136;11.062;2022-10-30T05:43:55;98557.00;;;11.30
7389;BMP180;3735;50.136;11.062;2022-10-30T05:46:21;98556.00;;;11.30
7389;BMP180;3735;50.136;11.062;2022-10-30T05:48:47;98554.00;;;11.20
7389;BMP180;3735;50.136;11.062;2022-10-30T05:51:12;98561.00;;;11.10
7389;BMP180;3735;50.136;11.062;2022-10-30T05:53:38;98550.00;;;11.00
7389;BMP180;3735;50.136;11.062;2022-10-30T05:56:04;98548.00;;;10.90
7389;BMP180;3735;50.136;11.062;2022-10-30T05:58:30;98551.00;;;10.80
7389;BMP180;3735;50.136;11.062;2022-10-30T06:00:55;98553.00;;;10.80
7389;BMP180;3735;50.136;11.062;2022-10-30T06:03:22;98538.00;;;10.70
7389;BMP180;3735;50.136;11.062;2022-10-30T06:05:47;98551.00;;;10.70
7389;BMP180;3735;50.136;11.062;2022-10-30T06:08:14;98541.00;;;10.60
7389;BMP180;3735;50.136;11.062;2022-10-30T06:10:43;98548.00;;;10.60
7389;BMP180;3735;50.136;11.062;2022-10-30T06:13:09;98541.00;;;10.70
7389;BMP180;3735;50.136;11.062;2022-10-30T06:15:35;98529.00;;;10.80
7389;BMP180;3735;50.136;11.062;2022-10-30T06:18:01;98535.00;;;10.80
7389;BMP180;3735;50.136;11.062;2022-10-30T06:20:29;98538.00;;;10.80
7389;BMP180;3735;50.136;11.062;2022-10-30T06:23:03;98536.00;;;10.90
7389;BMP180;3735;50.136;11.062;2022-10-30T06:25:32;98536.00;;;11.10
7389;BMP180;3735;50.136;11.062;2022-10-30T06:27:58;98529.00;;;11.10
7389;BMP180;3735;50.136;11.062;2022-10-30T06:30:25;98535.00;;;11.10
7389;BMP180;3735;50.136;11.062;2022-10-30T06:32:59;98529.00;;;11.20
7389;BMP180;3735;50.136;11.062;2022-10-30T06:35:26;98545.00;;;11.30
7389;BMP180;3735;50.136;11.062;2022-10-30T06:37:53;98537.00;;;11.30
7389;BMP180;3735;50.136;11.062;2022-10-30T06:40:23;98534.00;;;11.50
7389;BMP180;3735;50.136;11.062;2022-10-30T06:42:52;98535.00;;;11.60
7389;BMP180;3735;50.136;11.062;2022-10-30T06:45:20;98541.00;;;11.70
7389;BMP180;3735;50.136;11.062;2022-10-30T06:47:47;98529.00;;;11.70
7389;BMP180;3735;50.136;11.062;2022-10-30T06:50:17;98523.00;;;11.80
7389;BMP180;3735;50.136;11.062;2022-10-30T06:52:43;98539.00;;;11.80
7389;BMP180;3735;50.136;11.062;2022-10-30T06:55:10;98538.00;;;11.80
7389;BMP180;3735;50.136;11.062;2022-10-30T06:57:36;98538.00;;;11.80
7389;BMP180;3735;50.136;11.062;2022-10-30T07:00:04;98539.00;;;11.80
7389;BMP180;3735;50.136;11.062;2022-10-30T07:02:31;98539.00;;;11.80
7389;BMP180;3735;50.136;11.062;2022-10-30T07:04:56;98544.00;;;11.80
7389;BMP180;3735;50.136;11.062;2022-10-30T07:07:22;98552.00;;;11.80
7389;BMP180;3735;50.136;11.062;2022-10-30T07:09:48;98550.00;;;11.80
7389;BMP180;3735;50.136;11.062;2022-10-30T07:12:13;98549.00;;;11.80
7389;BMP180;3735;50.136;11.062;2022-10-30T07:14:40;98552.00;;;11.90
7389;BMP180;3735;50.136;11.062;2022-10-30T07:17:06;98559.00;;;11.90
7389;BMP180;3735;50.136;11.062;2022-10-30T07:19:31;98555.00;;;11.90
7389;BMP180;3735;50.136;11.062;2022-10-30T07:21:57;98553.00;;;11.90
7389;BMP180;3735;50.136;11.062;2022-10-30T07:24:23;98552.00;;;12.00
7389;BMP180;3735;50.136;11.062;2022-10-30T07:26:48;98554.00;;;12.00
7389;BMP180;3735;50.136;11.062;2022-10-30T07:29:14;98552.00;;;12.10
7389;BMP180;3735;50.136;11.062;2022-10-30T07:31:40;98557.00;;;12.20
7389;BMP180;3735;50.136;11.062;2022-10-30T07:34:06;98549.00;;;12.40
7389;BMP180;3735;50.136;11.062;2022-10-30T07:36:32;98555.00;;;12.60
7389;BMP180;3735;50.136;11.062;2022-10-30T07:38:58;98552.00;;;12.90
7389;BMP180;3735;50.136;11.062;2022-10-30T07:41:24;98560.00;;;12.90
7389;BMP180;3735;50.136;11.062;2022-10-30T07:43:49;98560.00;;;13.10
7389;BMP180;3735;50.136;11.062;2022-10-30T07:46:15;98556.00;;;13.50
7389;BMP180;3735;50.136;11.062;2022-10-30T07:48:41;98561.00;;;13.90
7389;BMP180;3735;50.136;11.062;2022-10-30T07:51:06;98554.00;;;14.50
7389;BMP180;3735;50.136;11.062;2022-10-30T07:53:32;98542.00;;;15.30
7389;BMP180;3735;50.136;11.062;2022-10-30T07:55:58;98559.00;;;16.00
7389;BMP180;3735;50.136;11.062;2022-10-30T07:58:24;98556.00;;;16.50
7389;BMP180;3735;50.136;11.062;2022-10-30T08:00:49;98550.00;;;16.50
7389;BMP180;3735;50.136;11.062;2022-10-30T08:03:15;98559.00;;;16.40
7389;BMP180;3735;50.136;11.062;2022-10-30T08:05:41;98561.00;;;16.10
7389;BMP180;3735;50.136;11.062;2022-10-30T08:08:08;98564.00;;;15.60
7389;BMP180;3735;50.136;11.062;2022-10-30T08:10:34;98559.00;;;15.50
7389;BMP180;3735;50.136;11.062;2022-10-30T08:13:00;98567.00;;;15.40
7389;BMP180;3735;50.136;11.062;2022-10-30T08:15:26;98564.00;;;15.40
7389;BMP180;3735;50.136;11.062;2022-10-30T08:17:52;98561.00;;;15.40
7389;BMP180;3735;50.136;11.062;2022-10-30T08:20:21;98570.00;;;15.40
7389;BMP180;3735;50.136;11.062;2022-10-30T08:22:54;98575.00;;;15.60
7389;BMP180;3735;50.136;11.062;2022-10-30T08:25:24;98567.00;;;15.60
7389;BMP180;3735;50.136;11.062;2022-10-30T08:30:29;98572.00;;;15.80
7389;BMP180;3735;50.136;11.062;2022-10-30T08:33:00;98565.00;;;16.00
7389;BMP180;3735;50.136;11.062;2022-10-30T08:35:26;98576.00;;;16.10
7389;BMP180;3735;50.136;11.062;2022-10-30T08:37:56;98574.00;;;16.40
7389;BMP180;3735;50.136;11.062;2022-10-30T08:40:25;98569.00;;;16.60
7389;BMP180;3735;50.136;11.062;2022-10-30T08:42:56;98575.00;;;16.80
7389;BMP180;3735;50.136;11.062;2022-10-30T08:45:23;98575.00;;;16.90
7389;BMP180;3735;50.136;11.062;2022-10-30T08:47:58;98568.00;;;17.00
7389;BMP180;3735;50.136;11.062;2022-10-30T08:50:24;98578.00;;;17.60
7389;BMP180;3735;50.136;11.062;2022-10-30T08:52:49;98570.00;;;18.60
7389;BMP180;3735;50.136;11.062;2022-10-30T08:55:15;98571.00;;;19.40
7389;BMP180;3735;50.136;11.062;2022-10-30T08:57:41;98556.00;;;20.00
7389;BMP180;3735;50.136;11.062;2022-10-30T09:00:07;98566.00;;;21.00
7389;BMP180;3735;50.136;11.062;2022-10-30T09:02:35;98565.00;;;21.60
7389;BMP180;3735;50.136;11.062;2022-10-30T09:05:05;98560.00;;;22.00
7389;BMP180;3735;50.136;11.062;2022-10-30T09:07:31;98562.00;;;22.20
7389;BMP180;3735;50.136;11.062;2022-10-30T09:09:57;98561.00;;;22.70
7389;BMP180;3735;50.136;11.062;2022-10-30T09:12:22;98565.00;;;23.50
7389;BMP180;3735;50.136;11.062;2022-10-30T09:14:48;98570.00;;;24.10
7389;BMP180;3735;50.136;11.062;2022-10-30T09:17:14;98569.00;;;24.90
7389;BMP180;3735;50.136;11.062;2022-10-30T09:19:40;98563.00;;;25.50
7389;BMP180;3735;50.136;11.062;2022-10-30T09:22:06;98569.00;;;26.10
7389;BMP180;3735;50.136;11.062;2022-10-30T09:24:31;98576.00;;;26.60
7389;BMP180;3735;50.136;11.062;2022-10-30T09:26:57;98571.00;;;26.80
7389;BMP180;3735;50.136;11.062;2022-10-30T09:29:23;98568.00;;;26.80
7389;BMP180;3735;50.136;11.062;2022-10-30T09:31:49;98573.00;;;26.70
7389;BMP180;3735;50.136;11.062;2022-10-30T09:34:15;98578.00;;;27.00
7389;BMP180;3735;50.136;11.062;2022-10-30T09:36:40;98573.00;;;26.90
7389;BMP180;3735;50.136;11.062;2022-10-30T09:39:11;98584.00;;;27.20
7389;BMP180;3735;50.136;11.062;2022-10-30T09:42:31;98588.00;;;27.50
7389;BMP180;3735;50.136;11.062;2022-10-30T09:54:46;98595.00;;;27.80
7389;BMP180;3735;50.136;11.062;2022-10-30T09:57:31;98597.00;;;28.40
7389;BMP180;3735;50.136;11.062;2022-10-30T10:00:10;98600.00;;;29.00
7389;BMP180;3735;50.136;11.062;2022-10-30T10:02:55;98607.00;;;28.60
7389;BMP180;3735;50.136;11.062;2022-10-30T10:05:33;98605.00;;;29.30
7389;BMP180;3735;50.136;11.062;2022-10-30T10:08:09;98604.00;;;29.80
7389;BMP180;3735;50.136;11.062;2022-10-30T10:10:42;98605.00;;;30.00
7389;BMP180;3735;50.136;11.062;2022-10-30T10:13:42;98609.00;;;29.90
7389;BMP180;3735;50.136;11.062;2022-10-30T10:19:31;98614.00;;;29.10
7389;BMP180;3735;50.136;11.062;2022-10-30T10:22:16;98609.00;;;29.60
7389;BMP180;3735;50.136;11.062;2022-10-30T10:24:44;98602.00;;;30.10
7389;BMP180;3735;50.136;11.062;2022-10-30T10:30:18;98607.00;;;30.40
7389;BMP180;3735;50.136;11.062;2022-10-30T10:38:55;98611.00;;;29.90
7389;BMP180;3735;50.136;11.062;2022-10-30T10:42:25;98605.00;;;29.60
7389;BMP180;3735;50.136;11.062;2022-10-30T10:45:31;98599.00;;;29.30
7389;BMP180;3735;50.136;11.062;2022-10-30T10:51:24;98598.00;;;29.30
7389;BMP180;3735;50.136;11.062;2022-10-30T10:53:54;98592.00;;;29.20
7389;BMP180;3735;50.136;11.062;2022-10-30T10:56:30;98598.00;;;29.70
7389;BMP180;3735;50.136;11.062;2022-10-30T10:59:05;98602.00;;;30.20
7389;BMP180;3735;50.136;11.062;2022-10-30T11:01:39;98599.00;;;30.30
7389;BMP180;3735;50.136;11.062;2022-10-30T11:09:41;98593.00;;;30.00
7389;BMP180;3735;50.136;11.062;2022-10-30T11:12:08;98590.00;;;30.30
7389;BMP180;3735;50.136;11.062;2022-10-30T11:14:34;98592.00;;;30.20
7389;BMP180;3735;50.136;11.062;2022-10-30T11:17:19;98587.00;;;29.60
7389;BMP180;3735;50.136;11.062;2022-10-30T11:19:48;98584.00;;;29.40
7389;BMP180;3735;50.136;11.062;2022-10-30T11:24:54;98585.00;;;29.30
7389;BMP180;3735;50.136;11.062;2022-10-30T11:29:59;98583.00;;;29.60
7389;BMP180;3735;50.136;11.062;2022-10-30T11:32:32;98595.00;;;29.20
7389;BMP180;3735;50.136;11.062;2022-10-30T11:37:36;98579.00;;;30.10
7389;BMP180;3735;50.136;11.062;2022-10-30T11:43:00;98579.00;;;31.00
7389;BMP180;3735;50.136;11.062;2022-10-30T11:45:31;98584.00;;;30.70
7389;BMP180;3735;50.136;11.062;2022-10-30T11:47:59;98580.00;;;30.50
7389;BMP180;3735;50.136;11.062;2022-10-30T11:50:30;98582.00;;;30.20
7389;BMP180;3735;50.136;11.062;2022-10-30T11:53:10;98579.00;;;31.10
7389;BMP180;3735;50.136;11.062;2022-10-30T11:55:47;98579.00;;;31.60
7389;BMP180;3735;50.136;11.062;2022-10-30T11:58:37;98570.00;;;31.20
7389;BMP180;3735;50.136;11.062;2022-10-30T12:01:25;98577.00;;;31.20
7389;BMP180;3735;50.136;11.062;2022-10-30T12:03:54;98574.00;;;30.90
7389;BMP180;3735;50.136;11.062;2022-10-30T12:09:19;98571.00;;;31.30
7389;BMP180;3735;50.136;11.062;2022-10-30T12:11:46;98567.00;;;31.20
7389;BMP180;3735;50.136;11.062;2022-10-30T12:14:20;98569.00;;;31.50
7389;BMP180;3735;50.136;11.062;2022-10-30T12:16:50;98568.00;;;31.30
7389;BMP180;3735;50.136;11.062;2022-10-30T12:19:19;98569.00;;;30.50
7389;BMP180;3735;50.136;11.062;2022-10-30T12:21:50;98574.00;;;29.80
7389;BMP180;3735;50.136;11.062;2022-10-30T12:24:27;98569.00;;;30.00
7389;BMP180;3735;50.136;11.062;2022-10-30T12:26:54;98571.00;;;30.20
7389;BMP180;3735;50.136;11.062;2022-10-30T12:29:37;98576.00;;;30.00
7389;BMP180;3735;50.136;11.062;2022-10-30T12:32:14;98558.00;;;30.00
7389;BMP180;3735;50.136;11.062;2022-10-30T12:34:59;98575.00;;;29.70
7389;BMP180;3735;50.136;11.062;2022-10-30T12:37:36;98569.00;;;29.30
7389;BMP180;3735;50.136;11.062;2022-10-30T12:40:12;98570.00;;;29.50
7389;BMP180;3735;50.136;11.062;2022-10-30T12:42:51;98562.00;;;30.20
7389;BMP180;3735;50.136;11.062;2022-10-30T12:45:38;98560.00;;;30.80
7389;BMP180;3735;50.136;11.062;2022-10-30T12:48:24;98560.00;;;30.60
7389;BMP180;3735;50.136;11.062;2022-10-30T12:51:20;98557.00;;;31.10
7389;BMP180;3735;50.136;11.062;2022-10-30T12:57:10;98550.00;;;31.90
7389;BMP180;3735;50.136;11.062;2022-10-30T13:00:08;98548.00;;;31.90
7389;BMP180;3735;50.136;11.062;2022-10-30T13:02:45;98545.00;;;31.20
7389;BMP180;3735;50.136;11.062;2022-10-30T13:05:59;98546.00;;;30.90
7389;BMP180;3735;50.136;11.062;2022-10-30T13:08:38;98543.00;;;30.80
7389;BMP180;3735;50.136;11.062;2022-10-30T13:11:27;98545.00;;;30.00
7389;BMP180;3735;50.136;11.062;2022-10-30T13:14:00;98536.00;;;30.10
7389;BMP180;3735;50.136;11.062;2022-10-30T13:16:29;98540.00;;;29.70
7389;BMP180;3735;50.136;11.062;2022-10-30T13:18:59;98530.00;;;29.40
7389;BMP180;3735;50.136;11.062;2022-10-30T13:25:12;98531.00;;;29.20
7389;BMP180;3735;50.136;11.062;2022-10-30T13:28:22;98529.00;;;28.60
7389;BMP180;3735;50.136;11.062;2022-10-30T13:31:04;98528.00;;;28.50
7389;BMP180;3735;50.136;11.062;2022-10-30T13:33:43;98530.00;;;28.40
7389;BMP180;3735;50.136;11.062;2022-10-30T13:36:21;98525.00;;;28.90
7389;BMP180;3735;50.136;11.062;2022-10-30T13:39:21;98527.00;;;29.40
7389;BMP180;3735;50.136;11.062;2022-10-30T13:53:47;98518.00;;;28.80
7389;BMP180;3735;50.136;11.062;2022-10-30T13:56:19;98523.00;;;28.90
7389;BMP180;3735;50.136;11.062;2022-10-30T14:02:02;98525.00;;;29.20
7389;BMP180;3735;50.136;11.062;2022-10-30T14:04:40;98522.00;;;29.40
7389;BMP180;3735;50.136;11.062;2022-10-30T14:13:21;98520.00;;;30.20
7389;BMP180;3735;50.136;11.062;2022-10-30T14:15:59;98522.00;;;29.70
7389;BMP180;3735;50.136;11.062;2022-10-30T14:18:28;98522.00;;;29.20
7389;BMP180;3735;50.136;11.062;2022-10-30T14:20:58;98516.00;;;28.40
7389;BMP180;3735;50.136;11.062;2022-10-30T14:23:37;98517.00;;;28.00
7389;BMP180;3735;50.136;11.062;2022-10-30T14:28:39;98527.00;;;27.40
7389;BMP180;3735;50.136;11.062;2022-10-30T14:31:13;98529.00;;;27.10
7389;BMP180;3735;50.136;11.062;2022-10-30T14:33:52;98522.00;;;27.00
7389;BMP180;3735;50.136;11.062;2022-10-30T14:53:21;98539.00;;;23.80
7389;BMP180;3735;50.136;11.062;2022-10-30T14:56:07;98534.00;;;23.30
7389;BMP180;3735;50.136;11.062;2022-10-30T14:58:37;98540.00;;;23.20
7389;BMP180;3735;50.136;11.062;2022-10-30T15:09:20;98531.00;;;20.70
7389;BMP180;3735;50.136;11.062;2022-10-30T15:12:28;98530.00;;;20.10
7389;BMP180;3735;50.136;11.062;2022-10-30T15:15:05;98529.00;;;19.70
7389;BMP180;3735;50.136;11.062;2022-10-30T15:17:41;98518.00;;;19.40
7389;BMP180;3735;50.136;11.062;2022-10-30T15:20:22;98526.00;;;19.00
7389;BMP180;3735;50.136;11.062;2022-10-30T15:23:08;98526.00;;;18.70
7389;BMP180;3735;50.136;11.062;2022-10-30T15:25:59;98526.00;;;18.30
7389;BMP180;3735;50.136;11.062;2022-10-30T15:28:32;98529.00;;;18.00
7389;BMP180;3735;50.136;11.062;2022-10-30T15:31:19;98526.00;;;17.70
7389;BMP180;3735;50.136;11.062;2022-10-30T15:33:46;98531.00;;;17.40
7389;BMP180;3735;50.136;11.062;2022-10-30T15:36:33;98531.00;;;17.20
7389;BMP180;3735;50.136;11.062;2022-10-30T15:39:13;98530.00;;;16.90
7389;BMP180;3735;50.136;11.062;2022-10-30T15:41:59;98540.00;;;16.60
7389;BMP180;3735;50.136;11.062;2022-10-30T15:44:30;98542.00;;;16.40
7389;BMP180;3735;50.136;11.062;2022-10-30T15:47:02;98544.00;;;16.30
7389;BMP180;3735;50.136;11.062;2022-10-30T15:49:33;98536.00;;;16.10
7389;BMP180;3735;50.136;11.062;2022-10-30T15:52:24;98540.00;;;15.80
7389;BMP180;3735;50.136;11.062;2022-10-30T15:54:58;98544.00;;;15.60
7389;BMP180;3735;50.136;11.062;2022-10-30T15:57:33;98535.00;;;15.50
7389;BMP180;3735;50.136;11.062;2022-10-30T16:00:16;98540.00;;;15.40
7389;BMP180;3735;50.136;11.062;2022-10-30T16:03:15;98535.00;;;15.20
7389;BMP180;3735;50.136;11.062;2022-10-30T16:05:41;98540.00;;;15.00
7389;BMP180;3735;50.136;11.062;2022-10-30T16:08:22;98540.00;;;14.90
7389;BMP180;3735;50.136;11.062;2022-10-30T16:10:51;98542.00;;;14.70
7389;BMP180;3735;50.136;11.062;2022-10-30T16:13:29;98543.00;;;14.60
7389;BMP180;3735;50.136;11.062;2022-10-30T16:15:55;98531.00;;;14.40
7389;BMP180;3735;50.136;11.062;2022-10-30T16:18:32;98542.00;;;14.30
7389;BMP180;3735;50.136;11.062;2022-10-30T16:21:05;98540.00;;;14.20
7389;BMP180;3735;50.136;11.062;2022-10-30T16:23:41;98540.00;;;14.20
7389;BMP180;3735;50.136;11.062;2022-10-30T16:26:43;98537.00;;;14.10
7389;BMP180;3735;50.136;11.062;2022-10-30T16:31:40;98539.00;;;13.90
7389;BMP180;3735;50.136;11.062;2022-10-30T16:34:20;98530.00;;;13.80
7389;BMP180;3735;50.136;11.062;2022-10-30T16:36:47;98537.00;;;13.70
7389;BMP180;3735;50.136;11.062;2022-10-30T16:39:16;98538.00;;;13.70
7389;BMP180;3735;50.136;11.062;2022-10-30T16:41:44;98540.00;;;13.60
7389;BMP180;3735;50.136;11.062;2022-10-30T16:44:24;98531.00;;;13.50
7389;BMP180;3735;50.136;11.062;2022-10-30T16:46:57;98536.00;;;13.40
7389;BMP180;3735;50.136;11.062;2022-10-30T16:49:31;98528.00;;;13.40
7389;BMP180;3735;50.136;11.062;2022-10-30T16:52:03;98539.00;;;13.30